Time;durP1;ratioP1;P1;durP2;ratioP2;P2;SDS_P1;SDS_P2;PMS_P1;PMS_P2;Temp;Humidity;BMP_temperature;BMP_pressure;BME280_temperature;BME280_humidity;BME280_pressure;Samples;Min_cycle;Max_cycle;Signal;HPM_P1;HPM_P2
2023/04/21 00:02:09;;;;;;;2.80;1.40;;;;;;;6.15;47.96;102743.88;5105695;28;20130;-68
2023/04/21 00:04:36;;;;;;;6.10;1.30;;;;;;;6.12;48.21;102741.19;5101847;28;20044;-68
2023/04/21 00:07:03;;;;;;;2.97;1.20;;;;;;;6.08;48.44;102735.91;5105797;28;20040;-68
2023/04/21 00:09:30;;;;;;;10.07;1.33;;;;;;;6.06;48.26;102742.78;5104108;28;20036;-68
2023/04/21 00:11:58;;;;;;;8.85;1.55;;;;;;;6.02;48.67;102733.13;5105252;28;20048;-68
2023/04/21 00:14:25;;;;;;;5.60;1.35;;;;;;;6.00;48.83;102739.97;5106499;28;20047;-68
2023/04/21 00:16:52;;;;;;;8.27;1.73;;;;;;;5.96;48.58;102730.34;5106850;28;20051;-68
2023/04/21 00:19:19;;;;;;;12.80;1.08;;;;;;;5.93;48.89;102726.75;5107355;28;20047;-68
2023/04/21 00:21:46;;;;;;;5.28;1.35;;;;;;;5.90;48.94;102722.34;5110143;28;20476;-68
2023/04/21 00:24:13;;;;;;;3.10;1.00;;;;;;;5.86;48.94;102717.88;5109033;27;20042;-68
2023/04/21 00:26:40;;;;;;;4.90;1.58;;;;;;;5.84;48.89;102723.03;5107473;27;20043;-68
2023/04/21 00:29:08;;;;;;;3.05;1.20;;;;;;;5.81;49.27;102724.63;5111469;27;20043;-68
2023/04/21 00:31:35;;;;;;;8.13;1.05;;;;;;;5.77;49.06;102718.44;5110848;27;20047;-70
2023/04/21 00:34:02;;;;;;;7.75;1.20;;;;;;;5.74;49.37;102717.47;5107319;27;20503;-68
2023/04/21 00:36:28;;;;;;;7.18;1.70;;;;;;;5.72;49.38;102714.84;5109957;28;20462;-68
2023/04/21 00:38:55;;;;;;;4.55;1.08;;;;;;;5.69;49.30;102719.91;5111891;27;20049;-68
2023/04/21 00:41:22;;;;;;;2.65;1.23;;;;;;;5.67;49.36;102710.34;5109080;27;20051;-68
2023/04/21 00:44:02;;;;;;;4.30;1.10;;;;;;;5.63;49.33;102710.25;5107643;27;20039;-68
2023/04/21 00:46:31;;;;;;;6.55;1.35;;;;;;;5.60;49.57;102711.84;5109373;27;20777;-68
2023/04/21 00:48:58;;;;;;;6.22;1.10;;;;;;;5.56;49.81;102709.97;5110178;28;20047;-68
2023/04/21 00:51:27;;;;;;;6.80;1.27;;;;;;;5.54;49.64;102712.50;5103705;28;20063;-68
2023/04/21 00:53:55;;;;;;;2.97;1.55;;;;;;;5.51;49.90;102707.22;5106555;28;20040;-68
2023/04/21 00:56:22;;;;;;;4.25;1.45;;;;;;;5.50;50.11;102702.00;5106877;28;20058;-68
2023/04/21 00:58:49;;;;;;;7.90;1.23;;;;;;;5.48;50.43;102704.53;5109336;27;20044;-68
2023/04/21 01:01:17;;;;;;;2.10;1.10;;;;;;;5.46;50.47;102706.19;5109671;27;20050;-68
2023/04/21 01:03:46;;;;;;;8.00;1.25;;;;;;;5.44;50.61;102705.28;5101211;28;20081;-68
2023/04/21 01:06:13;;;;;;;10.70;1.50;;;;;;;5.43;50.66;102698.31;5106483;28;20114;-68
2023/04/21 01:08:40;;;;;;;4.07;0.98;;;;;;;5.42;50.63;102704.34;5105662;28;20073;-68
2023/04/21 01:11:11;;;;;;;6.20;1.25;;;;;;;5.43;50.77;102697.44;5112030;27;20051;-68
2023/04/21 01:13:38;;;;;;;3.65;1.45;;;;;;;5.43;50.74;102697.44;5108952;27;20043;-68
2023/04/21 01:16:06;;;;;;;1.35;0.88;;;;;;;5.42;50.85;102696.56;5108194;27;20051;-68
2023/04/21 01:18:33;;;;;;;5.68;1.08;;;;;;;5.41;50.91;102695.69;5109743;27;20500;-68
2023/04/21 01:21:03;;;;;;;15.05;1.65;;;;;;;5.41;50.88;102697.41;5110583;27;20052;-68
2023/04/21 01:23:31;;;;;;;8.25;1.58;;;;;;;5.39;50.80;102699.06;5109348;28;20081;-68
2023/04/21 01:25:58;;;;;;;6.10;1.83;;;;;;;5.37;51.12;102692.94;5110141;27;20042;-68
2023/04/21 01:28:26;;;;;;;3.00;1.27;;;;;;;5.37;51.44;102700.69;5108649;28;20113;-68
2023/04/21 01:30:53;;;;;;;9.13;1.23;;;;;;;5.35;50.94;102686.81;5107148;28;20048;-69
2023/04/21 01:33:21;;;;;;;2.10;0.93;;;;;;;5.33;51.47;102685.88;5107956;27;20044;-68
2023/04/21 01:35:48;;;;;;;5.53;1.45;;;;;;;5.32;51.20;102686.69;5099872;28;20465;-68
2023/04/21 01:38:17;;;;;;;6.00;0.93;;;;;;;5.30;51.38;102683.19;5108855;27;20410;-68
2023/04/21 01:40:49;;;;;;;7.03;1.50;;;;;;;5.27;51.56;102686.56;5109285;27;20062;-68
2023/04/21 01:43:18;;;;;;;5.40;1.20;;;;;;;5.27;51.52;102681.38;5108387;27;20396;-68
2023/04/21 01:45:45;;;;;;;7.43;1.48;;;;;;;5.26;51.44;102686.50;5104308;27;20050;-68
2023/04/21 01:48:12;;;;;;;2.03;1.27;;;;;;;5.24;51.47;102680.41;5108598;28;20048;-68
2023/04/21 01:50:39;;;;;;;12.70;1.60;;;;;;;5.24;51.54;102677.81;5105154;27;20058;-68
2023/04/21 01:53:06;;;;;;;3.95;1.38;;;;;;;5.23;51.70;102678.63;5110281;27;20721;-68
2023/04/21 01:55:33;;;;;;;5.25;1.80;;;;;;;5.21;51.52;102672.50;5108469;27;20079;-68
2023/04/21 01:58:02;;;;;;;7.05;1.38;;;;;;;5.20;51.79;102671.63;5108533;27;20046;-68
2023/04/21 02:00:29;;;;;;;4.03;1.55;;;;;;;5.18;52.15;102675.91;5106253;27;20048;-68
2023/04/21 02:02:56;;;;;;;5.32;1.02;;;;;;;5.17;51.90;102671.53;5107212;27;20392;-68
2023/04/21 02:05:23;;;;;;;7.07;1.85;;;;;;;5.15;52.25;102674.06;5102479;27;20654;-68
2023/04/21 02:07:50;;;;;;;5.25;1.60;;;;;;;5.13;52.02;102675.72;5108470;28;20415;-68
2023/04/21 02:10:17;;;;;;;6.13;1.30;;;;;;;5.13;52.35;102680.91;5104171;27;20113;-68
2023/04/21 02:12:44;;;;;;;6.07;0.98;;;;;;;5.11;51.83;102672.19;5111102;27;20043;-67
2023/04/21 02:15:12;;;;;;;7.88;1.67;;;;;;;5.09;51.90;102668.66;5103700;28;20051;-70
2023/04/21 02:17:41;;;;;;;10.10;1.50;;;;;;;5.06;52.25;102668.56;5106224;28;20055;-70
2023/04/21 02:20:10;;;;;;;3.33;1.38;;;;;;;5.05;52.33;102668.53;5104713;27;20051;-70
2023/04/21 02:22:37;;;;;;;12.73;1.73;;;;;;;5.03;52.37;102668.44;5110466;27;20053;-70
2023/04/21 02:25:05;;;;;;;3.72;1.20;;;;;;;5.02;52.02;102673.59;5107367;27;20043;-70
2023/04/21 02:27:32;;;;;;;5.15;1.55;;;;;;;4.99;52.33;102674.38;5108412;28;20149;-70
2023/04/21 02:29:59;;;;;;;5.05;1.15;;;;;;;4.97;52.09;102673.41;5109098;27;20047;-70
2023/04/21 02:32:27;;;;;;;6.93;1.67;;;;;;;4.97;52.10;102673.41;5110168;27;20133;-70
2023/04/21 02:34:54;;;;;;;3.55;1.08;;;;;;;4.94;52.48;102671.59;5106202;27;20043;-70
2023/04/21 02:37:21;;;;;;;7.80;1.65;;;;;;;4.92;52.35;102674.97;5107458;27;20051;-70
2023/04/21 02:39:48;;;;;;;3.50;1.20;;;;;;;4.90;52.46;102674.06;5107544;28;20498;-70
2023/04/21 02:42:14;;;;;;;5.10;1.33;;;;;;;4.89;52.55;102669.69;5106372;27;21724;-70
2023/04/21 02:44:42;;;;;;;5.20;1.63;;;;;;;4.88;52.62;102667.94;5107450;27;20051;-71
2023/04/21 02:47:09;;;;;;;3.67;1.25;;;;;;;4.85;52.66;102665.22;5108889;28;20054;-70
2023/04/21 02:49:42;;;;;;;5.20;1.70;;;;;;;4.84;52.67;102671.22;5102566;28;20134;-70
2023/04/21 02:52:09;;;;;;;5.70;1.27;;;;;;;4.80;52.77;102670.22;5108049;27;20411;-69
2023/04/21 02:54:36;;;;;;;6.70;1.25;;;;;;;4.79;52.36;102662.44;5108508;28;20047;-70
2023/04/21 02:57:03;;;;;;;9.43;2.10;;;;;;;4.77;52.96;102666.66;5107699;27;20044;-70
2023/04/21 02:59:30;;;;;;;1.70;1.33;;;;;;;4.73;52.81;102666.56;5107555;28;20046;-70
2023/04/21 03:01:56;;;;;;;7.18;1.60;;;;;;;4.71;53.02;102664.72;5106371;28;20047;-70
2023/04/21 03:04:24;;;;;;;6.13;2.03;;;;;;;4.69;52.89;102664.66;5107129;28;20043;-70
2023/04/21 03:06:53;;;;;;;4.15;1.55;;;;;;;4.68;52.66;102662.03;5107889;27;20047;-70
2023/04/21 03:09:20;;;;;;;6.20;1.65;;;;;;;4.65;52.90;102665.41;5108616;28;20043;-69
2023/04/21 03:11:47;;;;;;;3.30;1.23;;;;;;;4.63;53.25;102666.16;5107972;28;20047;-70
2023/04/21 03:14:14;;;;;;;3.33;1.75;;;;;;;4.61;53.50;102662.63;5110012;27;20108;-70
2023/04/21 03:16:41;;;;;;;11.30;1.45;;;;;;;4.58;53.51;102660.84;5107824;28;20042;-71
2023/04/21 03:19:08;;;;;;;6.05;1.23;;;;;;;4.56;53.40;102662.47;5108872;27;20091;-70
2023/04/21 03:21:37;;;;;;;5.88;1.60;;;;;;;4.55;53.35;102662.41;5107829;28;20054;-71
2023/04/21 03:24:07;;;;;;;7.32;1.70;;;;;;;4.53;53.68;102664.09;5106143;28;20097;-70
2023/04/21 03:26:34;;;;;;;4.35;1.35;;;;;;;4.50;53.32;102664.84;5107631;28;20075;-70
2023/04/21 03:29:01;;;;;;;3.25;1.38;;;;;;;4.48;53.62;102661.31;5109793;27;20088;-70
2023/04/21 03:31:27;;;;;;;10.90;2.50;;;;;;;4.46;53.72;102657.78;5107400;28;20047;-70
2023/04/21 03:33:54;;;;;;;6.05;1.90;;;;;;;4.43;53.65;102657.66;5104220;28;20070;-70
2023/04/21 03:36:21;;;;;;;7.07;1.48;;;;;;;4.42;53.89;102661.09;5108729;27;20673;-70
2023/04/21 03:38:48;;;;;;;5.25;1.80;;;;;;;4.41;53.82;102651.53;5106537;28;20667;-70
2023/04/21 03:41:16;;;;;;;10.65;1.70;;;;;;;4.38;53.51;102652.31;5107930;28;20039;-70
2023/04/21 03:43:43;;;;;;;6.85;1.42;;;;;;;4.36;53.28;102659.16;5106293;28;20063;-70
2023/04/21 03:46:17;;;;;;;6.88;1.38;;;;;;;4.36;53.72;102656.56;5104068;28;20087;-70
2023/04/21 03:48:45;;;;;;;7.22;2.10;;;;;;;4.34;53.55;102660.81;5108381;28;20044;-70
2023/04/21 03:51:12;;;;;;;3.20;1.65;;;;;;;4.33;54.05;102651.28;5110322;28;20051;-70
2023/04/21 03:53:39;;;;;;;8.80;2.00;;;;;;;4.32;53.52;102653.81;5103620;28;20044;-70
2023/04/21 03:56:06;;;;;;;6.90;2.17;;;;;;;4.31;53.97;102652.06;5107856;27;20054;-70
2023/04/21 03:58:35;;;;;;;6.07;1.23;;;;;;;4.29;53.91;102654.56;5108369;28;20047;-70
2023/04/21 04:01:02;;;;;;;4.25;1.42;;;;;;;4.28;54.39;102651.09;5109595;27;20531;-70
2023/04/21 04:03:29;;;;;;;6.18;1.05;;;;;;;4.27;53.97;102649.34;5115073;27;20050;-71
2023/04/21 04:05:56;;;;;;;6.05;1.42;;;;;;;4.27;54.50;102651.94;5112695;27;20035;-70
2023/04/21 04:08:23;;;;;;;10.30;1.30;;;;;;;4.27;54.15;102651.94;5111687;27;20043;-70
2023/04/21 04:10:50;;;;;;;7.75;1.35;;;;;;;4.25;54.91;102645.81;5110362;27;20047;-70
2023/04/21 04:13:17;;;;;;;4.85;1.63;;;;;;;4.27;54.76;102644.19;5110203;27;20043;-71
2023/04/21 04:15:45;;;;;;;4.60;1.42;;;;;;;4.27;54.62;102644.19;5110082;27;20101;-70
2023/04/21 04:18:12;;;;;;;5.20;1.60;;;;;;;4.27;54.66;102641.59;5109791;27;20044;-70
2023/04/21 04:20:39;;;;;;;5.78;1.60;;;;;;;4.28;54.57;102638.16;5111685;27;20051;-70
2023/04/21 04:23:06;;;;;;;5.15;2.03;;;;;;;4.28;55.01;102638.16;5107997;28;20048;-70
2023/04/21 04:25:33;;;;;;;5.70;1.67;;;;;;;4.29;55.33;102642.50;5111053;28;20048;-70
2023/04/21 04:28:00;;;;;;;9.07;1.98;;;;;;;4.32;55.62;102639.16;5110636;27;20048;-70
2023/04/21 04:30:27;;;;;;;6.47;1.23;;;;;;;4.33;55.73;102640.06;5110390;28;20035;-70
2023/04/21 04:32:57;;;;;;;5.85;2.53;;;;;;;4.34;55.76;102631.47;5106084;27;20043;-70
2023/04/21 04:35:24;;;;;;;4.15;1.30;;;;;;;4.36;56.14;102630.69;5109048;27;20096;-70
2023/04/21 04:37:51;;;;;;;4.85;2.08;;;;;;;4.39;56.19;102627.34;5111839;27;20044;-70
2023/04/21 04:40:19;;;;;;;4.78;1.35;;;;;;;4.41;56.45;102629.16;5107638;28;20062;-70
2023/04/21 04:42:47;;;;;;;5.22;1.77;;;;;;;4.43;56.64;102613.69;5114456;27;20044;-71
2023/04/21 04:45:15;;;;;;;5.82;1.48;;;;;;;4.48;56.58;102631.13;5109127;28;20116;-70
2023/04/21 04:47:42;;;;;;;7.85;1.88;;;;;;;4.53;56.65;102626.13;5109230;27;20503;-70
2023/04/21 04:50:10;;;;;;;5.90;1.52;;;;;;;4.58;57.03;102622.03;5109682;27;20046;-70
2023/04/21 04:52:37;;;;;;;4.65;1.83;;;;;;;4.63;57.10;102628.22;5109424;27;20047;-70
2023/04/21 04:55:04;;;;;;;5.68;2.30;;;;;;;4.70;57.22;102621.56;5109213;27;20043;-70
2023/04/21 04:57:31;;;;;;;7.07;1.50;;;;;;;4.77;57.25;102625.25;5111252;27;20067;-70
2023/04/21 04:59:58;;;;;;;3.47;1.40;;;;;;;4.85;57.48;102626.38;5115398;27;20055;-70
2023/04/21 05:02:25;;;;;;;6.63;2.38;;;;;;;4.93;57.36;102624.94;5110412;27;20043;-70
2023/04/21 05:04:52;;;;;;;4.55;1.88;;;;;;;5.01;57.33;102628.69;5111398;27;20488;-70
2023/04/21 05:07:20;;;;;;;2.10;1.40;;;;;;;5.10;57.52;102623.81;5109269;27;20043;-70
2023/04/21 05:09:47;;;;;;;7.88;1.67;;;;;;;5.19;57.07;102620.66;5111031;27;20787;-70
2023/04/21 05:12:14;;;;;;;7.82;1.80;;;;;;;5.29;57.22;102621.81;5110399;27;20047;-70
2023/04/21 05:14:40;;;;;;;9.18;1.75;;;;;;;5.39;57.18;102621.31;5108635;27;20043;-70
2023/04/21 05:17:07;;;;;;;3.03;1.20;;;;;;;5.49;57.07;102622.47;5113011;27;20039;-70
2023/04/21 05:19:36;;;;;;;7.45;1.92;;;;;;;5.57;57.32;102624.47;5107537;28;20131;-70
2023/04/21 05:22:05;;;;;;;10.07;2.10;;;;;;;5.67;57.34;102625.66;5109704;28;20048;-70
2023/04/21 05:24:33;;;;;;;5.68;1.80;;;;;;;5.77;57.15;102621.63;5110589;27;20085;-70
2023/04/21 05:27:01;;;;;;;7.35;1.73;;;;;;;5.86;57.37;102627.09;5110680;27;20050;-70
2023/04/21 05:29:28;;;;;;;8.20;1.80;;;;;;;5.94;57.24;102624.78;5108148;27;20092;-70
2023/04/21 05:31:55;;;;;;;18.05;2.33;;;;;;;6.02;57.05;102623.28;5112652;27;20397;-70
2023/04/21 05:34:22;;;;;;;8.95;1.83;;;;;;;6.09;57.23;102612.28;5107608;27;20047;-70
2023/04/21 05:36:48;;;;;;;4.68;2.30;;;;;;;6.16;57.21;102609.00;5107663;27;20523;-71
2023/04/21 05:39:16;;;;;;;8.98;1.58;;;;;;;6.24;56.91;102617.03;5109937;27;20097;-70
2023/04/21 05:41:44;;;;;;;8.38;1.75;;;;;;;6.31;57.16;102608.56;5107694;27;20044;-71
2023/04/21 05:44:11;;;;;;;9.00;2.35;;;;;;;6.38;57.15;102607.91;5106588;28;20051;-71
2023/04/21 05:46:38;;;;;;;10.88;1.98;;;;;;;6.46;57.34;102609.00;5109476;27;20052;-70
2023/04/21 05:49:05;;;;;;;8.80;1.98;;;;;;;6.53;57.34;102608.34;5108376;27;20050;-72
2023/04/21 05:51:32;;;;;;;7.30;1.92;;;;;;;6.61;57.27;102602.47;5108640;27;20066;-70
2023/04/21 05:53:58;;;;;;;6.22;1.88;;;;;;;6.66;57.14;102601.78;5108822;27;20048;-71
2023/04/21 05:56:25;;;;;;;6.53;1.58;;;;;;;6.73;57.04;102603.69;5107515;27;20044;-71
2023/04/21 05:58:53;;;;;;;5.15;1.58;;;;;;;6.81;56.88;102600.41;5109211;27;20040;-71
2023/04/21 06:01:20;;;;;;;4.43;1.25;;;;;;;6.87;56.94;102601.44;5104232;27;20053;-71
2023/04/21 06:03:48;;;;;;;9.70;1.20;;;;;;;6.95;56.87;102601.66;5105727;28;20050;-71
2023/04/21 06:06:16;;;;;;;5.47;1.45;;;;;;;7.04;56.90;102598.41;5105312;28;20119;-73
2023/04/21 06:08:43;;;;;;;6.60;1.02;;;;;;;7.13;56.58;102593.44;5107739;27;20044;-73
2023/04/21 06:11:09;;;;;;;4.78;0.95;;;;;;;7.21;56.57;102592.78;5104162;27;20047;-73
2023/04/21 06:13:36;;;;;;;6.28;0.95;;;;;;;7.31;56.29;102593.00;5105943;27;20050;-73
2023/04/21 06:16:05;;;;;;;0.90;0.50;;;;;;;7.40;56.16;102585.44;5107296;27;20055;-74
2023/04/21 06:18:32;;;;;;;3.30;0.77;;;;;;;7.51;56.14;102588.28;5104732;27;20066;-74
2023/04/21 06:20:59;;;;;;;4.00;0.70;;;;;;;7.60;55.85;102583.31;5107801;27;20047;-73
2023/04/21 06:23:25;;;;;;;4.90;0.50;;;;;;;7.70;55.38;102584.38;5106977;27;20047;-73
2023/04/21 06:26:03;;;;;;;2.22;0.50;;;;;;;7.79;55.17;102577.66;5107575;27;20062;-72
2023/04/21 06:28:31;;;;;;;2.40;0.40;;;;;;;7.89;55.05;102574.41;5108785;27;20036;-73
2023/04/21 06:30:58;;;;;;;5.30;0.40;;;;;;;7.99;54.55;102580.69;5108573;27;20048;-73
2023/04/21 06:33:27;;;;;;;7.32;0.50;;;;;;;8.08;54.86;102578.28;5104809;27;20039;-72
2023/04/21 06:35:54;;;;;;;2.78;0.30;;;;;;;8.18;54.38;102579.34;5114554;27;20035;-70
2023/04/21 06:38:21;;;;;;;5.97;0.30;;;;;;;8.26;54.05;102567.38;5110365;27;20055;-70
2023/04/21 06:40:48;;;;;;;1.73;0.47;;;;;;;8.34;53.77;102565.78;5111501;27;20048;-70
2023/04/21 06:43:15;;;;;;;1.15;0.28;;;;;;;8.44;53.75;102574.69;5108797;27;20052;-74
2023/04/21 06:45:42;;;;;;;2.20;0.20;;;;;;;8.53;53.62;102572.25;5107862;27;20113;-69
2023/04/21 06:48:08;;;;;;;2.58;0.30;;;;;;;8.63;53.75;102565.50;5108692;27;20054;-68
2023/04/21 06:50:37;;;;;;;4.30;0.50;;;;;;;8.74;53.26;102569.16;5107248;27;20479;-69
2023/04/21 06:53:04;;;;;;;0.80;0.30;;;;;;;8.86;53.16;102560.69;5107499;27;20455;-70
2023/04/21 06:55:31;;;;;;;4.32;0.30;;;;;;;8.97;52.95;102558.28;5107730;27;20415;-68
2023/04/21 06:57:57;;;;;;;4.90;0.30;;;;;;;9.09;52.88;102554.97;5107968;28;20527;-69
2023/04/21 07:00:24;;;;;;;3.47;0.28;;;;;;;9.22;52.84;102550.00;5106945;27;20057;-71
2023/04/21 07:02:51;;;;;;;0.88;0.30;;;;;;;9.35;52.72;102551.03;5123440;27;20043;-80
2023/04/21 07:05:18;;;;;;;1.65;0.45;;;;;;;9.47;52.78;102547.72;5104946;27;20040;-82
2023/04/21 07:07:47;;;;;;;0.98;0.20;;;;;;;9.66;52.64;102541.91;5111837;27;20040;-77
2023/04/21 07:10:17;;;;;;;3.67;1.02;;;;;;;9.85;52.25;102543.06;5110241;27;20044;-75
2023/04/21 07:12:45;;;;;;;2.40;0.30;;;;;;;10.02;52.19;102535.44;5109304;27;20052;-76
2023/04/21 07:15:12;;;;;;;2.40;0.20;;;;;;;10.21;51.68;102538.25;5108637;28;20415;-81
2023/04/21 07:17:39;;;;;;;2.30;0.22;;;;;;;10.39;51.77;102538.50;5119153;27;20125;-83
2023/04/21 07:20:07;;;;;;;2.20;0.20;;;;;;;10.47;51.37;102509.81;5115873;27;20039;-79
2023/04/21 07:22:35;;;;;;;2.58;0.20;;;;;;;10.77;51.20;102525.78;5122493;27;20047;-84
2023/04/21 07:25:05;;;;;;;4.43;0.55;;;;;;;10.98;50.57;102524.19;5116641;27;20048;-80
2023/04/21 07:27:32;;;;;;;0.38;0.20;;;;;;;11.21;50.95;102526.97;5122511;27;20039;-78
2023/04/21 07:29:59;;;;;;;1.23;0.30;;;;;;;11.39;50.54;102515.78;5111185;27;20507;-82
2023/04/21 07:32:26;;;;;;;0.80;0.30;;;;;;;11.57;49.89;102508.03;5114006;27;20053;-81
2023/04/21 07:34:53;;;;;;;2.60;0.30;;;;;;;11.86;49.79;102508.19;5108075;28;20050;-79
2023/04/21 07:37:21;;;;;;;0.95;0.30;;;;;;;12.09;49.17;102513.50;5109723;28;20050;-80
2023/04/21 07:39:48;;;;;;;1.73;0.30;;;;;;;12.29;48.90;102502.19;5112756;28;20100;-82
2023/04/21 07:42:17;;;;;;;1.95;0.30;;;;;;;12.49;48.58;102502.22;5119257;27;20046;-78
2023/04/21 07:44:43;;;;;;;1.55;0.20;;;;;;;12.64;48.52;102499.66;5111776;27;20511;-78
2023/04/21 07:47:10;;;;;;;0.45;0.30;;;;;;;12.75;48.59;102489.13;5118450;28;20044;-80
2023/04/21 07:49:37;;;;;;;3.00;0.20;;;;;;;12.90;47.88;102491.78;5120596;27;20040;-82
2023/04/21 07:52:04;;;;;;;0.40;0.20;;;;;;;13.10;47.45;102489.13;5117518;28;20380;-78
2023/04/21 07:54:31;;;;;;;2.05;0.20;;;;;;;13.28;47.37;102491.72;5106990;28;20039;-79
2023/04/21 07:56:58;;;;;;;1.48;0.30;;;;;;;13.44;46.50;102487.34;5110084;28;20044;-80
2023/04/21 07:59:26;;;;;;;1.13;0.28;;;;;;;13.66;46.24;102488.13;5104999;28;20138;-81
2023/04/21 08:01:53;;;;;;;1.65;0.75;;;;;;;13.86;46.62;102477.53;5108713;28;20883;-80
2023/04/21 08:04:20;;;;;;;3.85;0.57;;;;;;;14.07;45.65;102478.31;5112416;28;20051;-79
2023/04/21 08:06:47;;;;;;;1.70;0.40;;;;;;;14.28;45.34;102470.28;5111266;28;20058;-74
2023/04/21 08:09:14;;;;;;;0.65;0.20;;;;;;;14.47;44.80;102465.75;5109576;28;20049;-84
2023/04/21 08:11:41;;;;;;;2.38;0.20;;;;;;;14.62;44.44;102465.66;5107098;27;20484;-80
2023/04/21 08:14:10;;;;;;;2.47;0.30;;;;;;;14.77;44.01;102461.16;5117013;28;20070;-81
2023/04/21 08:16:39;;;;;;;2.42;0.20;;;;;;;14.93;43.74;102454.88;5112096;28;20044;-79
2023/04/21 08:19:07;;;;;;;2.65;0.30;;;;;;;15.08;43.29;102456.47;5112139;28;20595;-80
2023/04/21 08:21:34;;;;;;;2.63;0.20;;;;;;;15.21;43.18;102465.13;5118753;28;20496;-80
2023/04/21 08:24:01;;;;;;;0.32;0.20;;;;;;;15.32;42.51;102452.72;5108107;28;20044;-83
2023/04/21 08:26:29;;;;;;;0.40;0.13;;;;;;;15.41;42.78;102447.31;5112865;28;20051;-82
2023/04/21 08:28:56;;;;;;;4.18;0.30;;;;;;;15.51;42.58;102442.81;5110889;28;20051;-79
2023/04/21 08:31:23;;;;;;;3.83;0.20;;;;;;;15.59;42.12;102443.59;5109650;28;20040;-82
2023/04/21 08:33:51;;;;;;;1.15;0.30;;;;;;;15.66;41.97;102436.50;5099521;28;20052;-84
2023/04/21 08:36:18;;;;;;;0.63;0.20;;;;;;;15.71;42.32;102438.22;5107367;28;20043;-82
2023/04/21 08:38:45;;;;;;;1.75;0.30;;;;;;;15.77;41.65;102434.63;5105342;28;20051;-80
2023/04/21 08:41:13;;;;;;;0.70;0.20;;;;;;;15.80;41.71;102431.09;5109838;28;20550;-81
2023/04/21 08:43:40;;;;;;;1.90;0.20;;;;;;;15.87;40.96;102436.22;5112467;27;20054;-79
2023/04/21 08:46:08;;;;;;;3.40;0.20;;;;;;;15.92;40.85;102431.75;5111926;28;20483;-77
2023/04/21 08:48:36;;;;;;;2.78;0.20;;;;;;;15.98;40.66;102424.66;5109567;28;20051;-80
2023/04/21 08:51:09;;;;;;;0.15;0.10;;;;;;;16.01;40.32;102429.91;5107886;28;20062;-82
2023/04/21 08:53:36;;;;;;;0.55;0.10;;;;;;;16.04;40.17;102432.47;5114189;28;20093;-77
2023/04/21 08:56:04;;;;;;;0.22;0.10;;;;;;;16.07;40.40;102425.38;5105517;28;20385;-80
2023/04/21 08:58:31;;;;;;;2.50;0.20;;;;;;;16.10;40.17;102425.34;5112195;28;20514;-82
2023/04/21 09:00:58;;;;;;;0.20;0.10;;;;;;;16.13;40.05;102427.06;5115982;27;20039;-75
2023/04/21 09:03:27;;;;;;;2.13;0.20;;;;;;;16.16;40.00;102422.59;5107701;28;20412;-76
2023/04/21 09:05:58;;;;;;;0.38;0.10;;;;;;;16.20;40.29;102426.09;5111035;28;20054;-77
2023/04/21 09:08:28;;;;;;;0.22;0.10;;;;;;;16.26;39.97;102423.34;5113316;27;20067;-75
2023/04/21 09:10:56;;;;;;;0.82;0.10;;;;;;;16.34;39.78;102426.75;5109548;27;20058;-75
2023/04/21 09:13:32;;;;;;;0.85;0.20;;;;;;;16.37;39.75;102420.56;5111192;28;20491;-74
2023/04/21 09:16:00;;;;;;;3.20;0.10;;;;;;;16.38;39.86;102420.50;5111598;27;20397;-80
2023/04/21 09:18:34;;;;;;;0.85;0.20;;;;;;;16.41;40.25;102409.91;5111539;27;20048;-75
2023/04/21 09:21:08;;;;;;;2.05;0.20;;;;;;;16.46;40.27;102414.25;5112168;27;20043;-76
2023/04/21 09:23:46;;;;;;;1.75;0.10;;;;;;;16.50;40.23;102408.00;5108897;27;20044;-77
2023/04/21 09:26:14;;;;;;;0.45;0.20;;;;;;;16.51;40.19;102396.59;5110552;27;20048;-75
2023/04/21 09:28:42;;;;;;;2.95;0.20;;;;;;;16.60;39.94;102401.69;5114188;27;20050;-76
2023/04/21 09:31:18;;;;;;;1.25;0.10;;;;;;;16.65;39.71;102402.50;5111365;27;20044;-76
2023/04/21 09:33:46;;;;;;;1.88;0.20;;;;;;;16.69;40.01;102396.25;5110559;27;20055;-76
2023/04/21 09:36:20;;;;;;;0.98;0.15;;;;;;;16.73;39.70;102392.63;5118815;27;20058;-77
2023/04/21 09:38:56;;;;;;;0.85;0.20;;;;;;;16.78;39.82;102389.97;5110192;27;20044;-74
2023/04/21 09:41:24;;;;;;;1.55;0.20;;;;;;;16.80;39.79;102383.75;5113391;27;20047;-78
2023/04/21 09:43:51;;;;;;;2.63;0.30;;;;;;;16.86;39.28;102383.63;5108675;28;20097;-78
2023/04/21 09:46:19;;;;;;;0.10;0.10;;;;;;;16.91;39.49;102382.69;5109854;27;20051;-77
2023/04/21 09:48:47;;;;;;;0.17;0.10;;;;;;;16.93;39.55;102373.81;5109342;27;20047;-74
2023/04/21 09:51:16;;;;;;;1.08;0.10;;;;;;;16.97;39.91;102375.50;5108323;27;20046;-74
2023/04/21 09:53:45;;;;;;;1.60;0.10;;;;;;;16.96;39.75;102373.78;5108047;27;20055;-74
2023/04/21 09:56:15;;;;;;;7.80;0.20;;;;;;;16.96;40.01;102367.63;5108380;27;20385;-73
2023/04/21 09:58:47;;;;;;;0.47;0.10;;;;;;;16.95;39.58;102371.16;5106799;28;20054;-74
2023/04/21 10:01:15;;;;;;;2.97;0.20;;;;;;;16.95;39.45;102365.88;5108936;27;20101;-73
2023/04/21 10:03:45;;;;;;;0.55;0.15;;;;;;;16.95;39.43;102366.75;5108106;28;20056;-74
2023/04/21 10:06:13;;;;;;;0.20;0.10;;;;;;;16.97;39.83;102364.09;5109035;27;20043;-73
2023/04/21 10:08:40;;;;;;;0.30;0.10;;;;;;;16.94;39.65;102349.19;5108833;27;20044;-74
2023/04/21 10:11:07;;;;;;;0.52;0.10;;;;;;;16.95;39.60;102350.03;5108619;27;20467;-74
2023/04/21 10:13:37;;;;;;;2.58;0.20;;;;;;;16.95;39.66;102350.91;5108147;28;20047;-74
2023/04/21 10:16:06;;;;;;;1.52;0.15;;;;;;;16.95;39.45;102344.75;5106854;27;20091;-76
2023/04/21 10:18:36;;;;;;;2.95;0.13;;;;;;;16.97;39.70;102338.56;5107231;27;20052;-75
2023/04/21 10:21:06;;;;;;;0.70;0.10;;;;;;;16.98;39.28;102344.69;5110731;27;20055;-77
2023/04/21 10:23:38;;;;;;;1.45;0.20;;;;;;;16.98;39.37;102342.06;5107169;27;20059;-76
2023/04/21 10:26:08;;;;;;;0.77;0.10;;;;;;;16.98;38.86;102339.41;5109519;27;20040;-75
2023/04/21 10:29:01;;;;;;;1.33;0.20;;;;;;;16.99;39.03;102333.22;5104402;28;20049;-74
2023/04/21 10:31:33;;;;;;;0.98;0.10;;;;;;;17.00;39.25;102327.06;5102215;27;20044;-76
2023/04/21 10:34:20;;;;;;;2.63;0.20;;;;;;;17.01;38.75;102319.09;5107359;28;20140;-74
2023/04/21 10:37:11;;;;;;;1.30;0.20;;;;;;;17.04;38.48;102323.44;5108024;27;20047;-74
2023/04/21 10:39:46;;;;;;;1.17;0.20;;;;;;;17.05;38.62;102319.94;5108935;27;20043;-73
2023/04/21 10:42:24;;;;;;;0.37;0.10;;;;;;;17.12;38.19;102320.66;5105861;27;20502;-74
2023/04/21 10:45:02;;;;;;;0.30;0.10;;;;;;;17.16;38.65;102310.00;5109109;27;20051;-74
2023/04/21 10:47:33;;;;;;;1.10;0.20;;;;;;;17.18;37.85;102309.97;5108170;27;20050;-73
2023/04/21 10:50:10;;;;;;;0.28;0.10;;;;;;;17.20;38.04;102309.03;5105925;27;20044;-73
2023/04/21 10:52:37;;;;;;;3.72;0.20;;;;;;;17.22;38.26;102296.66;5107395;27;20047;-74
2023/04/21 10:55:12;;;;;;;3.63;0.15;;;;;;;17.27;37.78;102294.78;5107509;27;20046;-74
2023/04/21 10:57:42;;;;;;;1.98;0.22;;;;;;;17.29;37.87;102298.25;5109431;27;20051;-74
2023/04/21 11:00:14;;;;;;;1.27;0.10;;;;;;;17.33;38.15;102292.91;5107078;27;20048;-74
2023/04/21 11:02:42;;;;;;;2.83;0.30;;;;;;;17.35;37.59;102291.97;5110358;27;20047;-74
2023/04/21 11:05:10;;;;;;;1.02;0.10;;;;;;;17.39;37.94;102293.66;5107704;27;20067;-74
2023/04/21 11:07:36;;;;;;;7.15;0.20;;;;;;;17.43;38.00;102295.31;5110336;27;20043;-75
2023/04/21 11:10:06;;;;;;;1.95;0.20;;;;;;;17.44;37.24;102290.88;5106088;27;20039;-74
2023/04/21 11:12:34;;;;;;;0.30;0.10;;;;;;;17.46;37.04;102283.81;5112198;27;20047;-74
2023/04/21 11:15:06;;;;;;;4.03;0.30;;;;;;;17.47;36.94;102285.53;5107530;28;20055;-74
2023/04/21 11:17:35;;;;;;;0.43;0.20;;;;;;;17.50;36.55;102285.47;5107785;28;20062;-75
2023/04/21 11:20:05;;;;;;;4.07;0.63;;;;;;;17.52;37.22;102275.72;5107553;27;20074;-75
2023/04/21 11:22:33;;;;;;;1.65;0.15;;;;;;;17.59;37.58;102287.00;5106689;27;20048;-74
2023/04/21 11:25:01;;;;;;;2.83;0.20;;;;;;;17.62;37.17;102289.63;5108611;27;20043;-73
2023/04/21 11:27:29;;;;;;;2.10;0.10;;;;;;;17.63;37.12;102284.28;5107897;28;20046;-74
2023/04/21 11:29:57;;;;;;;0.70;0.20;;;;;;;17.66;37.13;102286.84;5107485;27;20043;-74
2023/04/21 11:32:24;;;;;;;0.20;0.10;;;;;;;17.69;37.13;102278.84;5108270;27;20043;-73
2023/04/21 11:34:52;;;;;;;2.63;0.20;;;;;;;17.70;36.48;102271.78;5105854;28;20043;-74